Terminal Aerodrome Forecast
Issued by NWS

Home | Current Version | Previous Version | Text Only | Print | Product List | Glossary On
Versions: 1 2 3 4 5 6 7 8 9 10 11 12 13 14
000
FTUS43 KIND 310500
TAFHUF
TAF
KHUF 310527Z 3106/0106 15003KT P6SM FEW250
     FM311400 21010KT P6SM BKN250
     FM312000 22010KT P6SM OVC080
     FM312300 20008KT 4SM -SN SCT025 OVC050
      TEMPO 3123/0102 1 1/2SM -SN BKN025 OVC050=

USA.gov is the U.S. government's official web portal to all federal, state and local government web resources and services.